sensor_id;sensor_type;location;lat;lon;timestamp;P1;durP1;ratioP1;P2;durP2;ratioP2
31746;SDS011;18319;48.974;8.462;2022-11-11T00:00:18;4.88;;;2.38;;
31746;SDS011;18319;48.974;8.462;2022-11-11T00:02:45;3.10;;;2.28;;
31746;SDS011;18319;48.974;8.462;2022-11-11T00:05:13;2.30;;;2.10;;
31746;SDS011;18319;48.974;8.462;2022-11-11T00:07:41;6.20;;;2.03;;
31746;SDS011;18319;48.974;8.462;2022-11-11T00:10:09;1.77;;;1.67;;
31746;SDS011;18319;48.974;8.462;2022-11-11T00:12:36;2.25;;;2.08;;
31746;SDS011;18319;48.974;8.462;2022-11-11T00:15:03;4.40;;;2.80;;
31746;SDS011;18319;48.974;8.462;2022-11-11T00:17:31;5.07;;;2.80;;
31746;SDS011;18319;48.974;8.462;2022-11-11T00:20:16;2.60;;;2.40;;
31746;SDS011;18319;48.974;8.462;2022-11-11T00:23:02;4.72;;;2.67;;
31746;SDS011;18319;48.974;8.462;2022-11-11T00:25:50;3.63;;;2.05;;
31746;SDS011;18319;48.974;8.462;2022-11-11T00:28:17;1.85;;;1.63;;
31746;SDS011;18319;48.974;8.462;2022-11-11T00:30:44;2.08;;;1.55;;
31746;SDS011;18319;48.974;8.462;2022-11-11T00:33:11;3.20;;;1.83;;
31746;SDS011;18319;48.974;8.462;2022-11-11T00:35:38;3.50;;;2.00;;
31746;SDS011;18319;48.974;8.462;2022-11-11T00:38:21;2.67;;;1.83;;
31746;SDS011;18319;48.974;8.462;2022-11-11T00:41:06;3.35;;;1.80;;
31746;SDS011;18319;48.974;8.462;2022-11-11T00:43:33;2.20;;;1.80;;
31746;SDS011;18319;48.974;8.462;2022-11-11T00:46:00;2.97;;;1.70;;
31746;SDS011;18319;48.974;8.462;2022-11-11T00:48:45;3.75;;;1.70;;
31746;SDS011;18319;48.974;8.462;2022-11-11T00:51:29;2.03;;;1.65;;
31746;SDS011;18319;48.974;8.462;2022-11-11T00:53:58;1.48;;;1.38;;
31746;SDS011;18319;48.974;8.462;2022-11-11T00:56:25;1.70;;;1.60;;
31746;SDS011;18319;48.974;8.462;2022-11-11T00:58:52;1.48;;;1.38;;
31746;SDS011;18319;48.974;8.462;2022-11-11T01:01:19;3.27;;;2.10;;
31746;SDS011;18319;48.974;8.462;2022-11-11T01:03:46;1.67;;;1.48;;
31746;SDS011;18319;48.974;8.462;2022-11-11T01:06:13;4.10;;;2.13;;
31746;SDS011;18319;48.974;8.462;2022-11-11T01:08:41;3.05;;;1.52;;
31746;SDS011;18319;48.974;8.462;2022-11-11T01:11:12;2.50;;;1.63;;
31746;SDS011;18319;48.974;8.462;2022-11-11T01:13:40;5.95;;;1.98;;
31746;SDS011;18319;48.974;8.462;2022-11-11T01:16:07;2.17;;;1.73;;
31746;SDS011;18319;48.974;8.462;2022-11-11T01:18:35;2.05;;;1.85;;
31746;SDS011;18319;48.974;8.462;2022-11-11T01:21:03;2.28;;;2.08;;
31746;SDS011;18319;48.974;8.462;2022-11-11T01:23:31;3.13;;;1.88;;
31746;SDS011;18319;48.974;8.462;2022-11-11T01:26:02;6.78;;;1.90;;
31746;SDS011;18319;48.974;8.462;2022-11-11T01:28:31;4.10;;;2.38;;
31746;SDS011;18319;48.974;8.462;2022-11-11T01:31:02;2.75;;;1.70;;
31746;SDS011;18319;48.974;8.462;2022-11-11T01:33:30;3.60;;;1.70;;
31746;SDS011;18319;48.974;8.462;2022-11-11T01:36:01;1.45;;;1.33;;
31746;SDS011;18319;48.974;8.462;2022-11-11T01:38:28;1.42;;;1.38;;
31746;SDS011;18319;48.974;8.462;2022-11-11T01:40:55;3.72;;;1.63;;
31746;SDS011;18319;48.974;8.462;2022-11-11T01:43:23;1.67;;;1.50;;
31746;SDS011;18319;48.974;8.462;2022-11-11T01:45:53;1.63;;;1.13;;
31746;SDS011;18319;48.974;8.462;2022-11-11T01:48:24;2.38;;;1.30;;
31746;SDS011;18319;48.974;8.462;2022-11-11T01:51:11;3.05;;;1.40;;
31746;SDS011;18319;48.974;8.462;2022-11-11T01:53:40;5.22;;;1.48;;
31746;SDS011;18319;48.974;8.462;2022-11-11T01:56:08;1.60;;;1.50;;
31746;SDS011;18319;48.974;8.462;2022-11-11T01:58:35;3.15;;;1.85;;
31746;SDS011;18319;48.974;8.462;2022-11-11T02:01:04;2.67;;;1.83;;
31746;SDS011;18319;48.974;8.462;2022-11-11T02:03:32;2.47;;;2.22;;
31746;SDS011;18319;48.974;8.462;2022-11-11T02:06:01;4.60;;;1.90;;
31746;SDS011;18319;48.974;8.462;2022-11-11T02:08:28;2.45;;;2.25;;
31746;SDS011;18319;48.974;8.462;2022-11-11T02:10:58;3.60;;;2.70;;
31746;SDS011;18319;48.974;8.462;2022-11-11T02:13:26;4.45;;;3.25;;
31746;SDS011;18319;48.974;8.462;2022-11-11T02:16:12;3.50;;;2.90;;
31746;SDS011;18319;48.974;8.462;2022-11-11T02:18:39;5.07;;;3.97;;
31746;SDS011;18319;48.974;8.462;2022-11-11T02:21:07;6.47;;;3.72;;
31746;SDS011;18319;48.974;8.462;2022-11-11T02:23:36;4.78;;;4.32;;
31746;SDS011;18319;48.974;8.462;2022-11-11T02:26:06;6.35;;;4.18;;
31746;SDS011;18319;48.974;8.462;2022-11-11T02:28:35;5.72;;;3.97;;
31746;SDS011;18319;48.974;8.462;2022-11-11T02:31:03;8.63;;;4.43;;
31746;SDS011;18319;48.974;8.462;2022-11-11T02:33:30;8.55;;;5.70;;
31746;SDS011;18319;48.974;8.462;2022-11-11T02:35:57;8.75;;;5.78;;
31746;SDS011;18319;48.974;8.462;2022-11-11T02:38:26;15.88;;;5.82;;
31746;SDS011;18319;48.974;8.462;2022-11-11T02:40:54;6.45;;;4.30;;
31746;SDS011;18319;48.974;8.462;2022-11-11T02:43:40;7.70;;;4.45;;
31746;SDS011;18319;48.974;8.462;2022-11-11T02:46:08;4.23;;;2.70;;
31746;SDS011;18319;48.974;8.462;2022-11-11T02:48:35;2.53;;;2.33;;
31746;SDS011;18319;48.974;8.462;2022-11-11T02:51:02;2.50;;;2.17;;
31746;SDS011;18319;48.974;8.462;2022-11-11T02:53:30;1.77;;;1.67;;
31746;SDS011;18319;48.974;8.462;2022-11-11T02:55:58;2.67;;;2.15;;
31746;SDS011;18319;48.974;8.462;2022-11-11T02:58:25;2.05;;;1.48;;
31746;SDS011;18319;48.974;8.462;2022-11-11T03:00:53;2.65;;;1.48;;
31746;SDS011;18319;48.974;8.462;2022-11-11T03:03:20;1.70;;;1.60;;
31746;SDS011;18319;48.974;8.462;2022-11-11T03:05:47;1.88;;;1.45;;
31746;SDS011;18319;48.974;8.462;2022-11-11T03:08:14;1.65;;;1.55;;
31746;SDS011;18319;48.974;8.462;2022-11-11T03:10:41;4.70;;;1.73;;
31746;SDS011;18319;48.974;8.462;2022-11-11T03:13:08;2.30;;;1.97;;
31746;SDS011;18319;48.974;8.462;2022-11-11T03:15:36;2.67;;;1.75;;
31746;SDS011;18319;48.974;8.462;2022-11-11T03:18:04;2.93;;;1.80;;
31746;SDS011;18319;48.974;8.462;2022-11-11T03:20:30;2.03;;;1.63;;
31746;SDS011;18319;48.974;8.462;2022-11-11T03:23:15;4.18;;;1.90;;
31746;SDS011;18319;48.974;8.462;2022-11-11T03:25:43;3.38;;;1.95;;
31746;SDS011;18319;48.974;8.462;2022-11-11T03:28:10;1.80;;;1.70;;
31746;SDS011;18319;48.974;8.462;2022-11-11T03:30:38;1.70;;;1.60;;
31746;SDS011;18319;48.974;8.462;2022-11-11T03:33:07;4.27;;;2.27;;
31746;SDS011;18319;48.974;8.462;2022-11-11T03:35:34;1.85;;;1.75;;
31746;SDS011;18319;48.974;8.462;2022-11-11T03:38:02;1.90;;;1.75;;
31746;SDS011;18319;48.974;8.462;2022-11-11T03:40:40;5.45;;;1.65;;
31746;SDS011;18319;48.974;8.462;2022-11-11T03:43:07;2.30;;;1.80;;
31746;SDS011;18319;48.974;8.462;2022-11-11T03:45:35;2.40;;;1.90;;
31746;SDS011;18319;48.974;8.462;2022-11-11T03:48:02;2.95;;;2.30;;
31746;SDS011;18319;48.974;8.462;2022-11-11T03:50:31;2.58;;;1.63;;
31746;SDS011;18319;48.974;8.462;2022-11-11T03:52:58;2.77;;;2.20;;
31746;SDS011;18319;48.974;8.462;2022-11-11T03:55:25;3.13;;;2.20;;
31746;SDS011;18319;48.974;8.462;2022-11-11T03:57:53;2.67;;;2.22;;
31746;SDS011;18319;48.974;8.462;2022-11-11T04:00:20;3.23;;;2.33;;
31746;SDS011;18319;48.974;8.462;2022-11-11T04:02:48;6.45;;;2.78;;
31746;SDS011;18319;48.974;8.462;2022-11-11T04:05:34;4.93;;;2.55;;
31746;SDS011;18319;48.974;8.462;2022-11-11T04:08:19;3.60;;;3.30;;
31746;SDS011;18319;48.974;8.462;2022-11-11T04:11:05;5.68;;;2.85;;
31746;SDS011;18319;48.974;8.462;2022-11-11T04:13:33;3.35;;;2.05;;
31746;SDS011;18319;48.974;8.462;2022-11-11T04:16:18;4.72;;;2.50;;
31746;SDS011;18319;48.974;8.462;2022-11-11T04:18:45;2.75;;;2.13;;
31746;SDS011;18319;48.974;8.462;2022-11-11T04:21:31;3.30;;;2.70;;
31746;SDS011;18319;48.974;8.462;2022-11-11T04:24:10;6.72;;;2.63;;
31746;SDS011;18319;48.974;8.462;2022-11-11T04:26:56;2.40;;;2.20;;
31746;SDS011;18319;48.974;8.462;2022-11-11T04:29:23;3.90;;;2.42;;
31746;SDS011;18319;48.974;8.462;2022-11-11T04:31:53;2.88;;;2.67;;
31746;SDS011;18319;48.974;8.462;2022-11-11T04:34:38;7.30;;;2.83;;
31746;SDS011;18319;48.974;8.462;2022-11-11T04:37:06;10.25;;;2.90;;
31746;SDS011;18319;48.974;8.462;2022-11-11T04:39:33;4.80;;;2.47;;
31746;SDS011;18319;48.974;8.462;2022-11-11T04:42:18;5.75;;;2.85;;
31746;SDS011;18319;48.974;8.462;2022-11-11T04:44:45;5.25;;;2.65;;
31746;SDS011;18319;48.974;8.462;2022-11-11T04:47:30;5.03;;;2.55;;
31746;SDS011;18319;48.974;8.462;2022-11-11T04:49:57;6.13;;;3.13;;
31746;SDS011;18319;48.974;8.462;2022-11-11T04:52:25;5.32;;;3.40;;
31746;SDS011;18319;48.974;8.462;2022-11-11T04:54:53;3.95;;;2.90;;
31746;SDS011;18319;48.974;8.462;2022-11-11T04:57:39;5.88;;;2.53;;
31746;SDS011;18319;48.974;8.462;2022-11-11T05:00:07;6.00;;;2.85;;
31746;SDS011;18319;48.974;8.462;2022-11-11T05:02:34;4.00;;;2.60;;
31746;SDS011;18319;48.974;8.462;2022-11-11T05:05:18;5.25;;;2.63;;
31746;SDS011;18319;48.974;8.462;2022-11-11T05:07:47;3.90;;;2.85;;
31746;SDS011;18319;48.974;8.462;2022-11-11T05:10:31;6.68;;;2.47;;
31746;SDS011;18319;48.974;8.462;2022-11-11T05:12:59;8.13;;;2.85;;
31746;SDS011;18319;48.974;8.462;2022-11-11T05:15:44;2.78;;;2.47;;
31746;SDS011;18319;48.974;8.462;2022-11-11T05:18:29;4.20;;;2.85;;
31746;SDS011;18319;48.974;8.462;2022-11-11T05:21:14;2.28;;;2.15;;
31746;SDS011;18319;48.974;8.462;2022-11-11T05:23:49;3.75;;;2.45;;
31746;SDS011;18319;48.974;8.462;2022-11-11T05:26:34;5.43;;;2.22;;
31746;SDS011;18319;48.974;8.462;2022-11-11T05:29:02;4.22;;;2.17;;
31746;SDS011;18319;48.974;8.462;2022-11-11T05:31:29;4.75;;;2.60;;
31746;SDS011;18319;48.974;8.462;2022-11-11T05:33:56;3.10;;;2.85;;
31746;SDS011;18319;48.974;8.462;2022-11-11T05:36:23;2.95;;;2.75;;
31746;SDS011;18319;48.974;8.462;2022-11-11T05:38:51;2.97;;;2.67;;
31746;SDS011;18319;48.974;8.462;2022-11-11T05:41:19;2.97;;;2.70;;
31746;SDS011;18319;48.974;8.462;2022-11-11T05:43:46;2.72;;;2.50;;
31746;SDS011;18319;48.974;8.462;2022-11-11T05:46:13;3.20;;;2.90;;
31746;SDS011;18319;48.974;8.462;2022-11-11T05:48:40;3.33;;;2.87;;
31746;SDS011;18319;48.974;8.462;2022-11-11T05:51:21;2.75;;;2.53;;
31746;SDS011;18319;48.974;8.462;2022-11-11T05:53:54;3.15;;;2.38;;
31746;SDS011;18319;48.974;8.462;2022-11-11T05:56:21;2.28;;;2.17;;
31746;SDS011;18319;48.974;8.462;2022-11-11T05:58:48;2.17;;;1.90;;
31746;SDS011;18319;48.974;8.462;2022-11-11T06:01:15;2.10;;;2.00;;
31746;SDS011;18319;48.974;8.462;2022-11-11T06:03:42;2.57;;;2.37;;
31746;SDS011;18319;48.974;8.462;2022-11-11T06:06:09;6.65;;;3.00;;
31746;SDS011;18319;48.974;8.462;2022-11-11T06:08:37;3.38;;;2.30;;
31746;SDS011;18319;48.974;8.462;2022-11-11T06:11:05;3.13;;;2.78;;
31746;SDS011;18319;48.974;8.462;2022-11-11T06:13:32;3.20;;;2.83;;
31746;SDS011;18319;48.974;8.462;2022-11-11T06:15:59;3.07;;;2.63;;
31746;SDS011;18319;48.974;8.462;2022-11-11T06:18:26;3.97;;;2.53;;
31746;SDS011;18319;48.974;8.462;2022-11-11T06:20:54;2.72;;;2.17;;
31746;SDS011;18319;48.974;8.462;2022-11-11T06:23:21;3.03;;;2.78;;
31746;SDS011;18319;48.974;8.462;2022-11-11T06:25:48;3.97;;;2.10;;
31746;SDS011;18319;48.974;8.462;2022-11-11T06:28:34;3.63;;;2.20;;
31746;SDS011;18319;48.974;8.462;2022-11-11T06:31:02;4.00;;;2.20;;
31746;SDS011;18319;48.974;8.462;2022-11-11T06:33:31;3.67;;;2.20;;
31746;SDS011;18319;48.974;8.462;2022-11-11T06:35:58;3.07;;;2.60;;
31746;SDS011;18319;48.974;8.462;2022-11-11T06:38:25;3.43;;;2.77;;
31746;SDS011;18319;48.974;8.462;2022-11-11T06:40:52;7.23;;;2.93;;
31746;SDS011;18319;48.974;8.462;2022-11-11T06:43:20;7.20;;;3.03;;
31746;SDS011;18319;48.974;8.462;2022-11-11T06:45:50;3.43;;;3.00;;
31746;SDS011;18319;48.974;8.462;2022-11-11T06:48:17;3.57;;;2.80;;
31746;SDS011;18319;48.974;8.462;2022-11-11T06:50:44;4.17;;;2.73;;
31746;SDS011;18319;48.974;8.462;2022-11-11T06:53:12;5.20;;;3.20;;
31746;SDS011;18319;48.974;8.462;2022-11-11T06:55:39;4.63;;;3.40;;
31746;SDS011;18319;48.974;8.462;2022-11-11T06:58:07;4.77;;;3.60;;
31746;SDS011;18319;48.974;8.462;2022-11-11T07:00:35;4.40;;;3.53;;
31746;SDS011;18319;48.974;8.462;2022-11-11T07:03:05;3.93;;;2.77;;
31746;SDS011;18319;48.974;8.462;2022-11-11T07:05:32;3.27;;;2.97;;
31746;SDS011;18319;48.974;8.462;2022-11-11T07:08:00;2.50;;;2.30;;
31746;SDS011;18319;48.974;8.462;2022-11-11T07:10:28;2.57;;;2.30;;
31746;SDS011;18319;48.974;8.462;2022-11-11T07:12:55;3.22;;;2.92;;
31746;SDS011;18319;48.974;8.462;2022-11-11T07:15:22;2.93;;;2.73;;
31746;SDS011;18319;48.974;8.462;2022-11-11T07:17:50;4.63;;;2.57;;
31746;SDS011;18319;48.974;8.462;2022-11-11T07:20:18;5.53;;;1.90;;
31746;SDS011;18319;48.974;8.462;2022-11-11T07:22:45;7.57;;;1.97;;
31746;SDS011;18319;48.974;8.462;2022-11-11T07:25:13;2.50;;;1.97;;
31746;SDS011;18319;48.974;8.462;2022-11-11T07:27:40;2.90;;;2.10;;
31746;SDS011;18319;48.974;8.462;2022-11-11T07:30:08;2.00;;;1.87;;
31746;SDS011;18319;48.974;8.462;2022-11-11T07:32:36;2.17;;;2.07;;
31746;SDS011;18319;48.974;8.462;2022-11-11T07:35:03;6.17;;;2.17;;
31746;SDS011;18319;48.974;8.462;2022-11-11T07:37:32;12.27;;;2.63;;
31746;SDS011;18319;48.974;8.462;2022-11-11T07:39:59;7.50;;;2.95;;
31746;SDS011;18319;48.974;8.462;2022-11-11T07:42:26;4.82;;;2.40;;
31746;SDS011;18319;48.974;8.462;2022-11-11T07:44:53;6.80;;;2.60;;
31746;SDS011;18319;48.974;8.462;2022-11-11T07:47:20;3.23;;;2.60;;
31746;SDS011;18319;48.974;8.462;2022-11-11T07:49:47;7.77;;;2.70;;
31746;SDS011;18319;48.974;8.462;2022-11-11T07:52:14;6.55;;;3.05;;
31746;SDS011;18319;48.974;8.462;2022-11-11T07:54:43;6.30;;;2.57;;
31746;SDS011;18319;48.974;8.462;2022-11-11T07:57:10;7.47;;;2.63;;
31746;SDS011;18319;48.974;8.462;2022-11-11T07:59:37;12.18;;;2.63;;
31746;SDS011;18319;48.974;8.462;2022-11-11T08:02:04;2.88;;;2.47;;
31746;SDS011;18319;48.974;8.462;2022-11-11T08:04:31;10.20;;;2.90;;
31746;SDS011;18319;48.974;8.462;2022-11-11T08:06:58;3.70;;;2.30;;
31746;SDS011;18319;48.974;8.462;2022-11-11T08:09:25;3.50;;;3.13;;
31746;SDS011;18319;48.974;8.462;2022-11-11T08:11:54;8.27;;;2.80;;
31746;SDS011;18319;48.974;8.462;2022-11-11T08:14:39;6.83;;;2.73;;
31746;SDS011;18319;48.974;8.462;2022-11-11T08:17:06;2.85;;;2.65;;
31746;SDS011;18319;48.974;8.462;2022-11-11T08:19:33;7.60;;;2.83;;
31746;SDS011;18319;48.974;8.462;2022-11-11T08:22:00;3.58;;;3.10;;
31746;SDS011;18319;48.974;8.462;2022-11-11T08:24:28;3.40;;;2.60;;
31746;SDS011;18319;48.974;8.462;2022-11-11T08:26:56;5.32;;;2.47;;
31746;SDS011;18319;48.974;8.462;2022-11-11T08:29:23;7.00;;;2.10;;
31746;SDS011;18319;48.974;8.462;2022-11-11T08:31:51;10.27;;;2.40;;
31746;SDS011;18319;48.974;8.462;2022-11-11T08:34:18;2.77;;;2.57;;
31746;SDS011;18319;48.974;8.462;2022-11-11T08:36:45;3.70;;;3.43;;
31746;SDS011;18319;48.974;8.462;2022-11-11T08:39:12;4.75;;;3.63;;
31746;SDS011;18319;48.974;8.462;2022-11-11T08:41:39;3.83;;;3.35;;
31746;SDS011;18319;48.974;8.462;2022-11-11T08:44:08;3.42;;;3.13;;
31746;SDS011;18319;48.974;8.462;2022-11-11T08:46:35;3.20;;;3.00;;
31746;SDS011;18319;48.974;8.462;2022-11-11T08:49:02;2.55;;;2.45;;
31746;SDS011;18319;48.974;8.462;2022-11-11T08:51:29;3.07;;;2.87;;
31746;SDS011;18319;48.974;8.462;2022-11-11T08:53:56;2.63;;;2.53;;
31746;SDS011;18319;48.974;8.462;2022-11-11T08:56:23;2.67;;;2.50;;
31746;SDS011;18319;48.974;8.462;2022-11-11T08:58:50;2.27;;;2.17;;
31746;SDS011;18319;48.974;8.462;2022-11-11T09:01:19;2.40;;;2.30;;
31746;SDS011;18319;48.974;8.462;2022-11-11T09:03:46;4.28;;;2.55;;
31746;SDS011;18319;48.974;8.462;2022-11-11T09:06:13;3.25;;;2.92;;
31746;SDS011;18319;48.974;8.462;2022-11-11T09:08:41;7.90;;;2.55;;
31746;SDS011;18319;48.974;8.462;2022-11-11T09:11:08;3.85;;;2.70;;
31746;SDS011;18319;48.974;8.462;2022-11-11T09:13:35;5.65;;;3.33;;
31746;SDS011;18319;48.974;8.462;2022-11-11T09:16:03;7.45;;;3.33;;
31746;SDS011;18319;48.974;8.462;2022-11-11T09:18:31;3.55;;;3.28;;
31746;SDS011;18319;48.974;8.462;2022-11-11T09:20:59;8.65;;;3.55;;
31746;SDS011;18319;48.974;8.462;2022-11-11T09:23:26;5.68;;;4.03;;
31746;SDS011;18319;48.974;8.462;2022-11-11T09:25:53;9.02;;;4.55;;
31746;SDS011;18319;48.974;8.462;2022-11-11T09:28:22;9.25;;;4.20;;
31746;SDS011;18319;48.974;8.462;2022-11-11T09:30:49;5.22;;;4.45;;
31746;SDS011;18319;48.974;8.462;2022-11-11T09:33:16;4.97;;;3.60;;
31746;SDS011;18319;48.974;8.462;2022-11-11T09:35:45;3.90;;;3.53;;
31746;SDS011;18319;48.974;8.462;2022-11-11T09:38:12;3.70;;;3.20;;
31746;SDS011;18319;48.974;8.462;2022-11-11T09:40:44;5.85;;;4.40;;
31746;SDS011;18319;48.974;8.462;2022-11-11T09:43:15;3.95;;;3.65;;
31746;SDS011;18319;48.974;8.462;2022-11-11T09:45:45;4.68;;;3.28;;
31746;SDS011;18319;48.974;8.462;2022-11-11T09:48:20;4.50;;;3.22;;
31746;SDS011;18319;48.974;8.462;2022-11-11T09:50:53;7.15;;;4.00;;
31746;SDS011;18319;48.974;8.462;2022-11-11T09:53:23;5.25;;;3.60;;
31746;SDS011;18319;48.974;8.462;2022-11-11T09:55:51;3.72;;;3.42;;
31746;SDS011;18319;48.974;8.462;2022-11-11T09:58:20;4.05;;;3.63;;
31746;SDS011;18319;48.974;8.462;2022-11-11T10:00:50;3.53;;;3.28;;
31746;SDS011;18319;48.974;8.462;2022-11-11T10:03:20;3.38;;;3.15;;
31746;SDS011;18319;48.974;8.462;2022-11-11T10:05:50;2.90;;;2.70;;
31746;SDS011;18319;48.974;8.462;2022-11-11T10:08:20;3.05;;;2.85;;
31746;SDS011;18319;48.974;8.462;2022-11-11T10:10:50;3.25;;;3.05;;
31746;SDS011;18319;48.974;8.462;2022-11-11T10:13:19;3.92;;;3.55;;
31746;SDS011;18319;48.974;8.462;2022-11-11T10:15:49;5.40;;;3.63;;
31746;SDS011;18319;48.974;8.462;2022-11-11T10:18:25;5.03;;;3.58;;
31746;SDS011;18319;48.974;8.462;2022-11-11T10:20:55;4.15;;;3.75;;
31746;SDS011;18319;48.974;8.462;2022-11-11T10:23:25;4.25;;;3.85;;
31746;SDS011;18319;48.974;8.462;2022-11-11T10:25:55;4.97;;;3.65;;
31746;SDS011;18319;48.974;8.462;2022-11-11T10:28:23;10.57;;;3.55;;
31746;SDS011;18319;48.974;8.462;2022-11-11T10:30:52;7.63;;;4.22;;
31746;SDS011;18319;48.974;8.462;2022-11-11T10:33:21;12.07;;;3.90;;
31746;SDS011;18319;48.974;8.462;2022-11-11T10:35:50;11.27;;;4.28;;
31746;SDS011;18319;48.974;8.462;2022-11-11T10:38:28;3.90;;;3.53;;
31746;SDS011;18319;48.974;8.462;2022-11-11T10:40:58;5.80;;;4.18;;
31746;SDS011;18319;48.974;8.462;2022-11-11T10:43:29;6.82;;;4.50;;
31746;SDS011;18319;48.974;8.462;2022-11-11T10:45:58;6.20;;;5.20;;
31746;SDS011;18319;48.974;8.462;2022-11-11T10:48:29;12.50;;;7.20;;
31746;SDS011;18319;48.974;8.462;2022-11-11T10:51:00;17.15;;;9.35;;
31746;SDS011;18319;48.974;8.462;2022-11-11T10:53:30;22.02;;;11.57;;
31746;SDS011;18319;48.974;8.462;2022-11-11T10:56:00;20.50;;;12.25;;
31746;SDS011;18319;48.974;8.462;2022-11-11T10:58:30;18.63;;;10.88;;
31746;SDS011;18319;48.974;8.462;2022-11-11T11:00:59;17.50;;;9.80;;
31746;SDS011;18319;48.974;8.462;2022-11-11T11:03:29;16.60;;;9.20;;
31746;SDS011;18319;48.974;8.462;2022-11-11T11:05:57;18.08;;;10.57;;
31746;SDS011;18319;48.974;8.462;2022-11-11T11:08:33;13.38;;;9.93;;
31746;SDS011;18319;48.974;8.462;2022-11-11T11:11:02;10.15;;;8.80;;
31746;SDS011;18319;48.974;8.462;2022-11-11T11:13:31;15.82;;;8.75;;
31746;SDS011;18319;48.974;8.462;2022-11-11T11:16:02;10.75;;;8.68;;
31746;SDS011;18319;48.974;8.462;2022-11-11T11:18:30;10.88;;;8.70;;
31746;SDS011;18319;48.974;8.462;2022-11-11T11:20:58;9.60;;;8.43;;
31746;SDS011;18319;48.974;8.462;2022-11-11T11:23:36;14.23;;;9.02;;
31746;SDS011;18319;48.974;8.462;2022-11-11T11:26:04;12.63;;;9.68;;
31746;SDS011;18319;48.974;8.462;2022-11-11T11:28:31;14.35;;;8.85;;
31746;SDS011;18319;48.974;8.462;2022-11-11T11:31:00;11.80;;;8.55;;
31746;SDS011;18319;48.974;8.462;2022-11-11T11:33:27;11.30;;;8.75;;
31746;SDS011;18319;48.974;8.462;2022-11-11T11:36:14;11.43;;;9.18;;
31746;SDS011;18319;48.974;8.462;2022-11-11T11:38:44;10.18;;;8.23;;
31746;SDS011;18319;48.974;8.462;2022-11-11T11:41:11;11.80;;;8.95;;
31746;SDS011;18319;48.974;8.462;2022-11-11T11:43:39;11.57;;;8.10;;
31746;SDS011;18319;48.974;8.462;2022-11-11T11:46:13;7.07;;;6.55;;
31746;SDS011;18319;48.974;8.462;2022-11-11T11:48:46;7.18;;;6.47;;
31746;SDS011;18319;48.974;8.462;2022-11-11T11:51:19;7.57;;;6.65;;
31746;SDS011;18319;48.974;8.462;2022-11-11T11:53:50;6.78;;;6.18;;
31746;SDS011;18319;48.974;8.462;2022-11-11T11:56:24;7.07;;;6.30;;
31746;SDS011;18319;48.974;8.462;2022-11-11T11:58:56;6.60;;;6.05;;
31746;SDS011;18319;48.974;8.462;2022-11-11T12:01:26;11.82;;;7.15;;
31746;SDS011;18319;48.974;8.462;2022-11-11T12:06:43;7.82;;;7.03;;
31746;SDS011;18319;48.974;8.462;2022-11-11T12:09:16;7.40;;;6.78;;
31746;SDS011;18319;48.974;8.462;2022-11-11T12:11:49;7.57;;;6.88;;
31746;SDS011;18319;48.974;8.462;2022-11-11T12:14:24;11.10;;;8.50;;
31746;SDS011;18319;48.974;8.462;2022-11-11T12:16:56;9.75;;;7.97;;
31746;SDS011;18319;48.974;8.462;2022-11-11T12:19:30;8.70;;;7.85;;
31746;SDS011;18319;48.974;8.462;2022-11-11T12:22:01;9.13;;;8.10;;
31746;SDS011;18319;48.974;8.462;2022-11-11T12:24:33;8.10;;;7.32;;
31746;SDS011;18319;48.974;8.462;2022-11-11T12:27:05;8.68;;;7.85;;
31746;SDS011;18319;48.974;8.462;2022-11-11T12:29:37;9.48;;;8.07;;
31746;SDS011;18319;48.974;8.462;2022-11-11T12:32:14;9.52;;;8.50;;
31746;SDS011;18319;48.974;8.462;2022-11-11T12:34:47;7.95;;;7.22;;
31746;SDS011;18319;48.974;8.462;2022-11-11T12:37:20;8.10;;;7.38;;
31746;SDS011;18319;48.974;8.462;2022-11-11T12:40:00;8.20;;;7.45;;
31746;SDS011;18319;48.974;8.462;2022-11-11T12:42:31;9.00;;;7.70;;
31746;SDS011;18319;48.974;8.462;2022-11-11T12:45:04;9.15;;;7.60;;
31746;SDS011;18319;48.974;8.462;2022-11-11T12:47:35;7.93;;;7.18;;
31746;SDS011;18319;48.974;8.462;2022-11-11T12:50:07;7.50;;;6.85;;
31746;SDS011;18319;48.974;8.462;2022-11-11T12:52:40;8.57;;;7.30;;
31746;SDS011;18319;48.974;8.462;2022-11-11T12:55:18;8.52;;;7.60;;
31746;SDS011;18319;48.974;8.462;2022-11-11T12:57:53;9.32;;;7.60;;
31746;SDS011;18319;48.974;8.462;2022-11-11T13:00:25;8.40;;;7.63;;
31746;SDS011;18319;48.974;8.462;2022-11-11T13:03:04;10.65;;;7.88;;
31746;SDS011;18319;48.974;8.462;2022-11-11T13:05:33;9.05;;;8.20;;
31746;SDS011;18319;48.974;8.462;2022-11-11T13:10:47;9.40;;;7.82;;
31746;SDS011;18319;48.974;8.462;2022-11-11T13:13:24;9.43;;;8.63;;
31746;SDS011;18319;48.974;8.462;2022-11-11T13:15:54;7.70;;;6.95;;
31746;SDS011;18319;48.974;8.462;2022-11-11T13:18:23;8.82;;;7.95;;
31746;SDS011;18319;48.974;8.462;2022-11-11T13:20:53;8.52;;;7.85;;
31746;SDS011;18319;48.974;8.462;2022-11-11T13:23:23;8.82;;;7.60;;
31746;SDS011;18319;48.974;8.462;2022-11-11T13:25:52;9.27;;;8.38;;
31746;SDS011;18319;48.974;8.462;2022-11-11T13:28:22;8.30;;;7.60;;
31746;SDS011;18319;48.974;8.462;2022-11-11T13:33:48;8.70;;;8.00;;
31746;SDS011;18319;48.974;8.462;2022-11-11T13:36:17;10.95;;;7.82;;
31746;SDS011;18319;48.974;8.462;2022-11-11T13:38:46;8.98;;;8.18;;
31746;SDS011;18319;48.974;8.462;2022-11-11T13:41:20;9.20;;;8.30;;
31746;SDS011;18319;48.974;8.462;2022-11-11T13:43:48;10.50;;;9.35;;
31746;SDS011;18319;48.974;8.462;2022-11-11T13:46:28;9.20;;;8.27;;
31746;SDS011;18319;48.974;8.462;2022-11-11T13:48:56;9.02;;;8.23;;
31746;SDS011;18319;48.974;8.462;2022-11-11T13:51:25;9.85;;;8.95;;
31746;SDS011;18319;48.974;8.462;2022-11-11T13:53:52;11.57;;;10.05;;
31746;SDS011;18319;48.974;8.462;2022-11-11T13:56:22;10.43;;;8.98;;
31746;SDS011;18319;48.974;8.462;2022-11-11T13:58:50;10.77;;;9.02;;
31746;SDS011;18319;48.974;8.462;2022-11-11T14:01:17;10.98;;;9.88;;
31746;SDS011;18319;48.974;8.462;2022-11-11T14:03:58;10.25;;;9.23;;
31746;SDS011;18319;48.974;8.462;2022-11-11T14:06:47;9.57;;;8.68;;
31746;SDS011;18319;48.974;8.462;2022-11-11T14:14:45;11.68;;;9.63;;
31746;SDS011;18319;48.974;8.462;2022-11-11T14:17:12;11.68;;;10.10;;
31746;SDS011;18319;48.974;8.462;2022-11-11T14:19:41;11.20;;;9.77;;
31746;SDS011;18319;48.974;8.462;2022-11-11T14:22:24;9.98;;;9.07;;
31746;SDS011;18319;48.974;8.462;2022-11-11T14:24:53;12.07;;;10.15;;
31746;SDS011;18319;48.974;8.462;2022-11-11T14:27:20;12.90;;;10.57;;
31746;SDS011;18319;48.974;8.462;2022-11-11T14:29:51;11.00;;;9.57;;
31746;SDS011;18319;48.974;8.462;2022-11-11T14:32:27;13.90;;;10.25;;
31746;SDS011;18319;48.974;8.462;2022-11-11T14:37:58;10.98;;;9.35;;
31746;SDS011;18319;48.974;8.462;2022-11-11T14:40:28;12.30;;;9.80;;
31746;SDS011;18319;48.974;8.462;2022-11-11T14:42:56;11.75;;;9.52;;
31746;SDS011;18319;48.974;8.462;2022-11-11T14:50:48;12.00;;;9.43;;
31746;SDS011;18319;48.974;8.462;2022-11-11T14:53:16;12.75;;;10.00;;
31746;SDS011;18319;48.974;8.462;2022-11-11T14:55:46;12.43;;;10.60;;
31746;SDS011;18319;48.974;8.462;2022-11-11T14:58:17;12.27;;;10.48;;
31746;SDS011;18319;48.974;8.462;2022-11-11T15:00:47;12.88;;;10.40;;
31746;SDS011;18319;48.974;8.462;2022-11-11T15:03:16;12.55;;;10.88;;
31746;SDS011;18319;48.974;8.462;2022-11-11T15:05:47;14.20;;;10.52;;
31746;SDS011;18319;48.974;8.462;2022-11-11T15:08:19;14.45;;;10.95;;
31746;SDS011;18319;48.974;8.462;2022-11-11T15:11:03;13.60;;;11.02;;
31746;SDS011;18319;48.974;8.462;2022-11-11T15:16:24;14.70;;;12.70;;
31746;SDS011;18319;48.974;8.462;2022-11-11T15:18:58;14.18;;;11.15;;
31746;SDS011;18319;48.974;8.462;2022-11-11T15:21:31;14.90;;;11.63;;
31746;SDS011;18319;48.974;8.462;2022-11-11T15:24:11;17.63;;;11.95;;
31746;SDS011;18319;48.974;8.462;2022-11-11T15:26:42;15.38;;;11.32;;
31746;SDS011;18319;48.974;8.462;2022-11-11T15:29:19;17.27;;;12.57;;